^^
Saratoga-Weather Station Historical Data
Daily Summary for July 18, 2021 Units:  English    Metric   Both
Daily Weekly Monthly Yearly Custom
  High: Low: Average:
Temperature: 45.9 °F 39.4 °F 42.6 °F
Dew Point: 43.5 °F 38.5 °F 41.2 °F
Humidity: 97% 90% 95%
Wind Speed: 7mph 0mph 1.3mph
Wind Gust: 9mph - -
Wind- - West
Pressure: 30.5 in 30.4 in -
Precipitation: 0 in    
Historical Graphs
 
 
Tabular Data for July 18, 2021
Time Temperature Dew Point Pressure Wind Wind Speed Wind Gust Humidity Rainfall Rate (Hourly) solar
00:04 44.4 °F 43.2 °F 30.4 in West 2 mph 3 mph 95% 0 in 0 W/m2
00:09 44.4 °F 43.2 °F 30.4 in Calm   2 mph 95% 0 in 0 W/m2
00:14 44.4 °F 43.2 °F 30.4 in West 0.9 mph 2 mph 95% 0 in 0 W/m2
00:19 44.4 °F 43.2 °F 30.4 in WNW 0.9 mph 4 mph 95% 0 in 0 W/m2
00:24 44.6 °F 43.3 °F 30.4 in WNW 2 mph 3 mph 95% 0 in 0 W/m2
00:29 44.6 °F 43.3 °F 30.4 in West 2.9 mph 4 mph 95% 0 in 0 W/m2
00:34 44.8 °F 43.5 °F 30.4 in Calm   1 mph 95% 0 in 0 W/m2
00:39 44.8 °F 43.5 °F 30.4 in Calm   1 mph 95% 0 in 0 W/m2
00:44 44.8 °F 43.5 °F 30.4 in Calm   1 mph 95% 0 in 0 W/m2
00:49 44.8 °F 43.5 °F 30.4 in WNW 0.9 mph 3 mph 95% 0 in 0 W/m2
00:54 44.8 °F 43.5 °F 30.4 in WNW 2 mph 2 mph 95% 0 in 0 W/m2
00:59 44.8 °F 43.5 °F 30.4 in NW 0.9 mph 2 mph 95% 0 in 0 W/m2
01:04 44.8 °F 43.5 °F 30.4 in WNW 2 mph 4 mph 95% 0 in 0 W/m2
01:09 44.6 °F 43.3 °F 30.4 in Calm   2 mph 95% 0 in 0 W/m2
01:14 44.4 °F 43.2 °F 30.4 in WNW 0.9 mph 4 mph 95% 0 in 0 W/m2
01:19 44.4 °F 43.2 °F 30.4 in WNW 0.9 mph 2 mph 95% 0 in 0 W/m2
01:24 44.2 °F 43 °F 30.4 in Calm   2 mph 95% 0 in 0 W/m2
01:29 44.2 °F 42.6 °F 30.4 in Calm     94% 0 in 0 W/m2
01:34 44.1 °F 42.4 °F 30.4 in WNW 0.9 mph 2 mph 94% 0 in 0 W/m2
01:39 43.9 °F 42.3 °F 30.4 in West 0.9 mph 3 mph 94% 0 in 0 W/m2
01:44 43.5 °F 41.9 °F 30.4 in Calm     94% 0 in 0 W/m2
01:49 43.3 °F 41.7 °F 30.4 in Calm   3 mph 94% 0 in 0 W/m2
01:54 43.2 °F 41.5 °F 30.4 in West 2 mph 2 mph 94% 0 in 0 W/m2
01:59 43 °F 41.4 °F 30.4 in West 0.9 mph 2 mph 94% 0 in 0 W/m2
02:05 42.6 °F 41 °F 30.4 in Calm   1 mph 94% 0 in 0 W/m2
02:10 42.4 °F 41.2 °F 30.4 in Calm     95% 0 in 0 W/m2
02:15 42.4 °F 40.8 °F 30.4 in Calm     94% 0 in 0 W/m2
02:20 42.3 °F 41 °F 30.4 in Calm   3 mph 95% 0 in 0 W/m2
02:25 42.3 °F 41 °F 30.4 in WSW 0.9 mph 2 mph 95% 0 in 0 W/m2
02:30 42.3 °F 41 °F 30.4 in Calm   1 mph 95% 0 in 0 W/m2
02:35 42.3 °F 41 °F 30.4 in Calm   2 mph 95% 0 in 0 W/m2
02:40 42.4 °F 41.2 °F 30.4 in West 0.9 mph 2 mph 95% 0 in 0 W/m2
02:45 42.3 °F 41 °F 30.4 in Calm     95% 0 in 0 W/m2
02:50 42.3 °F 41 °F 30.4 in West 2 mph 3 mph 95% 0 in 0 W/m2
02:55 42.3 °F 41 °F 30.4 in West 0.9 mph 3 mph 95% 0 in 0 W/m2
03:00 42.1 °F 40.8 °F 30.4 in Calm   2 mph 95% 0 in 0 W/m2
03:05 41.9 °F 40.6 °F 30.4 in Calm     95% 0 in 0 W/m2
03:10 41.7 °F 40.5 °F 30.4 in WNW 2 mph 2 mph 95% 0 in 0 W/m2
03:15 41.5 °F 40.3 °F 30.4 in Calm     95% 0 in 0 W/m2
03:20 41.5 °F 40.3 °F 30.4 in Calm     95% 0 in 0 W/m2
03:25 41.4 °F 40.1 °F 30.4 in Calm     95% 0 in 0 W/m2
03:30 41.4 °F 40.3 °F 30.4 in WNW 0.9 mph 2 mph 96% 0 in 0 W/m2
03:35 41.5 °F 40.5 °F 30.4 in WNW 0.9 mph 2 mph 96% 0 in 0 W/m2
03:40 41.5 °F 40.5 °F 30.4 in WNW 0.9 mph 3 mph 96% 0 in 0 W/m2
03:45 41.5 °F 40.5 °F 30.4 in WNW 0.9 mph 3 mph 96% 0 in 0 W/m2
03:50 41.5 °F 40.5 °F 30.4 in West 2 mph 3 mph 96% 0 in 0 W/m2
03:55 41.7 °F 40.6 °F 30.4 in West 0.9 mph 3 mph 96% 0 in 0 W/m2
04:00 42.1 °F 41 °F 30.4 in WNW 2 mph 5 mph 96% 0 in 0 W/m2
04:05 42.1 °F 41 °F 30.4 in Calm   1 mph 96% 0 in 0 W/m2
04:10 42.1 °F 41 °F 30.4 in Calm   5 mph 96% 0 in 0 W/m2
04:15 41.7 °F 40.6 °F 30.4 in WNW 0.9 mph 1 mph 96% 0 in 0 W/m2
04:20 41.5 °F 40.5 °F 30.4 in Calm     96% 0 in 0 W/m2
04:25 41.5 °F 40.5 °F 30.4 in Calm     96% 0 in 0 W/m2
04:30 41.4 °F 40.3 °F 30.4 in WNW 0.9 mph 3 mph 96% 0 in 0 W/m2
04:35 41.2 °F 40.1 °F 30.4 in Calm     96% 0 in 0 W/m2
04:40 41 °F 39.9 °F 30.4 in Calm   3 mph 96% 0 in 0 W/m2
04:45 40.8 °F 39.7 °F 30.4 in Calm     96% 0 in 0 W/m2
04:50 40.6 °F 39.6 °F 30.4 in Calm     96% 0 in 0 W/m2
04:55 40.6 °F 39.6 °F 30.4 in WNW 2 mph 2 mph 96% 0 in 0 W/m2
05:00 41 °F 39.9 °F 30.4 in WNW 2 mph 3 mph 96% 0 in 0 W/m2
05:05 41.2 °F 40.1 °F 30.4 in Calm   2 mph 96% 0 in 0 W/m2
05:10 41.2 °F 40.1 °F 30.4 in Calm     96% 0 in 0 W/m2
05:15 41.2 °F 40.1 °F 30.4 in West 0.9 mph 2 mph 96% 0 in 0 W/m2
05:20 41.2 °F 40.1 °F 30.4 in West 2 mph 3 mph 96% 0 in 0 W/m2
05:25 41.2 °F 40.1 °F 30.4 in West 0.9 mph 2 mph 96% 0 in 0 W/m2
05:30 41.2 °F 40.1 °F 30.4 in West 0.9 mph 3 mph 96% 0 in 0 W/m2
05:35 41.2 °F 40.1 °F 30.4 in NW 4 mph 4 mph 96% 0 in 0 W/m2
05:40 41.2 °F 40.1 °F 30.4 in NW 0.9 mph 3 mph 96% 0 in 0 W/m2
05:45 40.8 °F 39.7 °F 30.4 in West 2 mph 6 mph 96% 0 in 0 W/m2
05:50 40.8 °F 39.7 °F 30.4 in Calm   3 mph 96% 0 in 0 W/m2
05:55 40.8 °F 39.7 °F 30.4 in West 0.9 mph 2 mph 96% 0 in 0 W/m2
06:00 40.8 °F 39.7 °F 30.4 in WNW 2 mph 2 mph 96% 0 in 0 W/m2
06:05 40.8 °F 39.7 °F 30.4 in Calm   1 mph 96% 0 in 0 W/m2
06:10 40.6 °F 39.6 °F 30.4 in NW 0.9 mph 2 mph 96% 0 in 0 W/m2
06:15 40.6 °F 39.6 °F 30.4 in NNW 2 mph 2 mph 96% 0 in 0 W/m2
06:20 40.6 °F 39.6 °F 30.4 in Calm   2 mph 96% 0 in 0 W/m2
06:25 40.5 °F 39.4 °F 30.4 in NW 2 mph 3 mph 96% 0 in 0 W/m2
06:30 40.5 °F 39.4 °F 30.4 in WNW 0.9 mph 3 mph 96% 0 in 0 W/m2
06:35 40.5 °F 39.4 °F 30.4 in West 2 mph 3 mph 96% 0 in 0 W/m2
06:41 40.3 °F 39.2 °F 30.4 in WNW 2.9 mph 4 mph 96% 0 in 0 W/m2
06:46 40.1 °F 39 °F 30.4 in WNW 2 mph 3 mph 96% 0 in 0 W/m2
06:51 39.9 °F 38.8 °F 30.4 in West 0.9 mph 2 mph 96% 0 in 0 W/m2
06:56 39.7 °F 38.7 °F 30.4 in WNW 2 mph 3 mph 96% 0 in 0 W/m2
07:01 39.7 °F 38.7 °F 30.4 in WNW 0.9 mph 3 mph 96% 0 in 0 W/m2
07:06 39.7 °F 38.7 °F 30.4 in NW 0.9 mph 2 mph 96% 0 in 0 W/m2
07:11 39.7 °F 38.7 °F 30.4 in Calm   2 mph 96% 0 in 0 W/m2
07:16 39.7 °F 38.7 °F 30.4 in NNW 0.9 mph 2 mph 96% 0 in 0 W/m2
07:21 39.7 °F 38.7 °F 30.4 in NNW 0.9 mph 2 mph 96% 0 in 0 W/m2
07:26 39.7 °F 38.7 °F 30.4 in Calm     96% 0 in 0 W/m2
07:31 39.6 °F 38.5 °F 30.4 in Calm   1 mph 96% 0 in 0 W/m2
07:36 39.6 °F 38.8 °F 30.4 in Calm   2 mph 97% 0 in 0 W/m2
07:41 39.6 °F 38.8 °F 30.4 in NW 0.9 mph 2 mph 97% 0 in 0 W/m2
07:46 39.6 °F 38.8 °F 30.4 in Calm   2 mph 97% 0 in 0 W/m2
07:51 39.6 °F 38.8 °F 30.4 in NW 2 mph 3 mph 97% 0 in 0 W/m2
07:56 39.6 °F 38.8 °F 30.4 in West 0.9 mph 3 mph 97% 0 in 0 W/m2
08:01 39.6 °F 38.8 °F 30.4 in Calm   1 mph 97% 0 in 5 W/m2
08:06 39.4 °F 38.7 °F 30.4 in West 2 mph 2 mph 97% 0 in 7 W/m2
08:11 39.4 °F 38.7 °F 30.4 in WNW 2 mph 2 mph 97% 0 in 9 W/m2
08:16 39.4 °F 38.7 °F 30.4 in WNW 2 mph 3 mph 97% 0 in 11 W/m2
08:21 39.4 °F 38.7 °F 30.4 in NW 0.9 mph 4 mph 97% 0 in 12 W/m2
08:26 39.4 °F 38.7 °F 30.4 in NW 0.9 mph 3 mph 97% 0 in 18 W/m2
08:31 39.4 °F 38.7 °F 30.4 in West 0.9 mph 3 mph 97% 0 in 21 W/m2
08:36 39.4 °F 38.7 °F 30.4 in WNW 2 mph 3 mph 97% 0 in 25 W/m2
08:41 39.6 °F 38.8 °F 30.4 in NW 2 mph 3 mph 97% 0 in 28 W/m2
08:46 39.6 °F 38.8 °F 30.4 in West 2 mph 6 mph 97% 0 in 30 W/m2
08:51 39.6 °F 38.8 °F 30.4 in Calm   2 mph 97% 0 in 33 W/m2
08:56 39.6 °F 38.8 °F 30.4 in WNW 2 mph 5 mph 97% 0 in 33 W/m2
09:01 39.7 °F 39 °F 30.4 in Calm     97% 0 in 35 W/m2
09:06 39.9 °F 39.2 °F 30.4 in Calm   2 mph 97% 0 in 35 W/m2
09:11 39.9 °F 39.2 °F 30.4 in Calm     97% 0 in 33 W/m2
09:16 40.1 °F 39.4 °F 30.4 in Calm   1 mph 97% 0 in 32 W/m2
09:21 40.3 °F 39.6 °F 30.5 in Calm   1 mph 97% 0 in 28 W/m2
09:26 40.3 °F 39.6 °F 30.5 in Calm   3 mph 97% 0 in 33 W/m2
09:31 40.3 °F 39.6 °F 30.5 in Calm     97% 0 in 44 W/m2
09:36 40.3 °F 39.6 °F 30.5 in Calm   3 mph 97% 0 in 46 W/m2
09:41 40.5 °F 39.7 °F 30.5 in West 2 mph 2 mph 97% 0 in 51 W/m2
09:46 40.5 °F 39.7 °F 30.5 in West 0.9 mph 3 mph 97% 0 in 53 W/m2
09:51 40.5 °F 39.7 °F 30.4 in Calm   1 mph 97% 0 in 56 W/m2
09:56 40.6 °F 39.9 °F 30.5 in Calm   2 mph 97% 0 in 69 W/m2
10:01 40.6 °F 39.9 °F 30.4 in WNW 0.9 mph 1 mph 97% 0 in 65 W/m2
10:06 40.8 °F 40.1 °F 30.4 in WNW 0.9 mph 2 mph 97% 0 in 77 W/m2
10:11 40.8 °F 40.1 °F 30.4 in West 0.9 mph 3 mph 97% 0 in 70 W/m2
10:16 40.8 °F 40.1 °F 30.5 in Calm   1 mph 97% 0 in 67 W/m2
10:21 40.8 °F 40.1 °F 30.5 in West 2 mph 3 mph 97% 0 in 63 W/m2
10:26 41 °F 40.3 °F 30.5 in Calm     97% 0 in 62 W/m2
10:31 41.2 °F 40.5 °F 30.5 in Calm   2 mph 97% 0 in 67 W/m2
10:36 41.2 °F 40.5 °F 30.5 in West 2.9 mph 4 mph 97% 0 in 84 W/m2
10:41 41.4 °F 40.6 °F 30.5 in WNW 0.9 mph 3 mph 97% 0 in 81 W/m2
10:46 41.4 °F 40.6 °F 30.5 in Calm     97% 0 in 91 W/m2
10:51 41.5 °F 40.8 °F 30.5 in Calm   3 mph 97% 0 in 81 W/m2
10:56 41.7 °F 41 °F 30.5 in ESE 2.9 mph 3 mph 97% 0 in 77 W/m2
11:01 41.9 °F 41.2 °F 30.5 in Calm     97% 0 in 74 W/m2
11:06 41.9 °F 41.2 °F 30.5 in Calm     97% 0 in 76 W/m2
11:11 41.9 °F 41.2 °F 30.5 in ENE 2 mph 4 mph 97% 0 in 84 W/m2
11:16 41.9 °F 41.2 °F 30.5 in NW 0.9 mph 3 mph 97% 0 in 90 W/m2
11:21 42.1 °F 41.4 °F 30.5 in WNW 2.9 mph 3 mph 97% 0 in 76 W/m2
11:26 41.9 °F 41.2 °F 30.5 in WNW 2.9 mph 3 mph 97% 0 in 74 W/m2
11:31 42.1 °F 41.4 °F 30.5 in WNW 2 mph 3 mph 97% 0 in 76 W/m2
11:36 42.3 °F 41.5 °F 30.5 in WNW 4.9 mph 7 mph 97% 0 in 90 W/m2
11:41 42.4 °F 41.7 °F 30.5 in West 0.9 mph 2 mph 97% 0 in 109 W/m2
11:46 42.6 °F 41.9 °F 30.5 in Calm   7 mph 97% 0 in 107 W/m2
11:51 42.6 °F 41.9 °F 30.5 in Calm     97% 0 in 90 W/m2
11:56 42.6 °F 41.9 °F 30.5 in SW 2.9 mph 5 mph 97% 0 in 102 W/m2
12:01 42.8 °F 42.1 °F 30.5 in Calm   1 mph 97% 0 in 104 W/m2
12:06 43 °F 42.3 °F 30.5 in NW 2.9 mph 5 mph 97% 0 in 77 W/m2
12:11 43.2 °F 42.4 °F 30.5 in NW 2.9 mph 3 mph 97% 0 in 84 W/m2
12:16 43.2 °F 42.4 °F 30.5 in NW 2 mph 6 mph 97% 0 in 84 W/m2
12:21 43 °F 41.9 °F 30.5 in NW 0.9 mph 4 mph 96% 0 in 74 W/m2
12:26 43.2 °F 42.1 °F 30.5 in Calm   5 mph 96% 0 in 86 W/m2
12:31 43.2 °F 42.1 °F 30.5 in Calm   3 mph 96% 0 in 77 W/m2
12:36 43.3 °F 42.3 °F 30.5 in WNW 0.9 mph 2 mph 96% 0 in 81 W/m2
12:41 43.3 °F 42.3 °F 30.5 in WNW 2 mph 2 mph 96% 0 in 76 W/m2
12:46 43.5 °F 42.4 °F 30.4 in NW 0.9 mph 1 mph 96% 0 in 79 W/m2
12:51 43.5 °F 42.4 °F 30.5 in Calm   2 mph 96% 0 in 83 W/m2
12:56 43.7 °F 42.6 °F 30.5 in NW 0.9 mph 4 mph 96% 0 in 76 W/m2
13:02 43.9 °F 42.6 °F 30.5 in NNW 2 mph 2 mph 95% 0 in 77 W/m2
13:07 43.9 °F 42.6 °F 30.5 in West 2 mph 3 mph 95% 0 in 90 W/m2
13:12 44.1 °F 42.8 °F 30.5 in Calm   1 mph 95% 0 in 90 W/m2
13:17 44.1 °F 42.8 °F 30.5 in West 2.9 mph 4 mph 95% 0 in 90 W/m2
13:22 44.2 °F 42.6 °F 30.5 in Calm   1 mph 94% 0 in 91 W/m2
13:27 44.2 °F 42.6 °F 30.5 in Calm   4 mph 94% 0 in 90 W/m2
13:32 44.4 °F 42.8 °F 30.5 in West 2 mph 4 mph 94% 0 in 107 W/m2
13:37 44.6 °F 43 °F 30.5 in Calm   1 mph 94% 0 in 102 W/m2
13:42 44.8 °F 43.2 °F 30.5 in West 0.9 mph 2 mph 94% 0 in 100 W/m2
13:47 44.8 °F 42.8 °F 30.5 in Calm   1 mph 93% 0 in 88 W/m2
13:52 45 °F 43 °F 30.4 in West 4 mph 4 mph 93% 0 in 102 W/m2
13:57 45 °F 43 °F 30.4 in West 4 mph 4 mph 93% 0 in 97 W/m2
14:02 45 °F 42.8 °F 30.4 in WNW 4 mph 4 mph 92% 0 in 118 W/m2
14:07 44.8 °F 42.6 °F 30.4 in WNW 2.9 mph 4 mph 92% 0 in 98 W/m2
14:12 45 °F 42.8 °F 30.4 in West 2 mph 5 mph 92% 0 in 98 W/m2
14:17 44.8 °F 42.6 °F 30.4 in NW 2 mph 3 mph 92% 0 in 84 W/m2
14:22 45 °F 42.8 °F 30.4 in NNW 0.9 mph 4 mph 92% 0 in 91 W/m2
14:27 45 °F 42.8 °F 30.4 in West 2 mph 6 mph 92% 0 in 91 W/m2
14:32 45 °F 42.8 °F 30.4 in Calm   3 mph 92% 0 in 113 W/m2
14:37 45.1 °F 43 °F 30.4 in SW 0.9 mph 3 mph 92% 0 in 134 W/m2
14:42 45.3 °F 43.2 °F 30.4 in WSW 0.9 mph 4 mph 92% 0 in 90 W/m2
14:47 45.1 °F 42.6 °F 30.4 in WNW 2.9 mph 3 mph 91% 0 in 91 W/m2
14:52 45.1 °F 42.6 °F 30.4 in WNW 2.9 mph 3 mph 91% 0 in 88 W/m2
14:57 45.1 °F 42.6 °F 30.4 in West 2 mph 2 mph 91% 0 in 86 W/m2
15:02 45.1 °F 42.6 °F 30.4 in WSW 2 mph 4 mph 91% 0 in 74 W/m2
15:07 45.1 °F 42.6 °F 30.4 in West 2 mph 8 mph 91% 0 in 76 W/m2
15:12 45.1 °F 42.4 °F 30.4 in WNW 2 mph 6 mph 90% 0 in 83 W/m2
15:17 45.1 °F 42.4 °F 30.4 in WSW 2.9 mph 8 mph 90% 0 in 109 W/m2
15:22 45.1 °F 42.6 °F 30.4 in West 2 mph 2 mph 91% 0 in 127 W/m2
15:27 45.3 °F 42.8 °F 30.4 in SW 2 mph 5 mph 91% 0 in 114 W/m2
15:32 45.7 °F 43.2 °F 30.4 in Calm   2 mph 91% 0 in 79 W/m2
15:37 45.9 °F 43.3 °F 30.4 in Calm   1 mph 91% 0 in 81 W/m2
15:42 45.9 °F 43.3 °F 30.4 in NW 0.9 mph 4 mph 91% 0 in 67 W/m2
15:47 45.9 °F 43.2 °F 30.4 in NW 2 mph 4 mph 90% 0 in 53 W/m2
15:52 45.9 °F 43.2 °F 30.4 in West 2 mph 4 mph 90% 0 in 44 W/m2
15:57 45.9 °F 43.2 °F 30.4 in West 0.9 mph 3 mph 90% 0 in 42 W/m2
16:02 45.9 °F 43.2 °F 30.4 in West 0.9 mph 4 mph 90% 0 in 40 W/m2
16:07 45.9 °F 43.3 °F 30.4 in WNW 2 mph 4 mph 91% 0 in 33 W/m2
16:12 45.7 °F 43 °F 30.4 in WNW 4 mph 6 mph 90% 0 in 28 W/m2
16:17 45.5 °F 42.8 °F 30.4 in Calm   4 mph 90% 0 in 26 W/m2
16:22 45.3 °F 42.8 °F 30.4 in WSW 2 mph 6 mph 91% 0 in 18 W/m2
16:27 45.1 °F 42.6 °F 30.4 in WNW 2.9 mph 8 mph 91% 0 in 14 W/m2
16:32 45 °F 42.4 °F 30.4 in West 2 mph 2 mph 91% 0 in 12 W/m2
16:37 45 °F 42.4 °F 30.5 in West 4 mph 4 mph 91% 0 in 11 W/m2
16:42 44.8 °F 42.6 °F 30.4 in Calm   3 mph 92% 0 in 7 W/m2
16:47 44.4 °F 42.3 °F 30.4 in West 0.9 mph 4 mph 92% 0 in 0 W/m2
16:52 44.2 °F 42.1 °F 30.4 in WNW 2.9 mph 4 mph 92% 0 in 0 W/m2
16:57 44.1 °F 41.9 °F 30.4 in WSW 2 mph 3 mph 92% 0 in 0 W/m2
17:02 43.9 °F 41.7 °F 30.4 in WNW 2.9 mph 9 mph 92% 0 in 0 W/m2
17:07 43.5 °F 41.4 °F 30.4 in West 0.9 mph 2 mph 92% 0 in 0 W/m2
17:12 43.5 °F 41.4 °F 30.4 in West 2 mph 9 mph 92% 0 in 0 W/m2
17:17 43.3 °F 41.5 °F 30.4 in NW 2.9 mph 3 mph 93% 0 in 0 W/m2
17:22 43.3 °F 41.5 °F 30.4 in WNW 7 mph 7 mph 93% 0 in 0 W/m2
17:27 43.3 °F 41.5 °F 30.4 in WNW 2 mph 5 mph 93% 0 in 0 W/m2
17:32 43.3 °F 41.5 °F 30.4 in WNW 0.9 mph 7 mph 93% 0 in 0 W/m2
17:37 43.3 °F 41.5 °F 30.4 in West 2.9 mph 3 mph 93% 0 in 0 W/m2
17:42 43.3 °F 41.5 °F 30.4 in West 2 mph 3 mph 93% 0 in 0 W/m2
17:47 43.2 °F 41.4 °F 30.4 in WNW 4 mph 4 mph 93% 0 in 0 W/m2
17:52 43.2 °F 41.4 °F 30.4 in West 2 mph 3 mph 93% 0 in 0 W/m2
17:57 43 °F 41.2 °F 30.4 in WSW 2.9 mph 4 mph 93% 0 in 0 W/m2
18:02 43 °F 41.2 °F 30.4 in West 2.9 mph 4 mph 93% 0 in 0 W/m2
18:07 42.8 °F 41 °F 30.4 in WNW 2.9 mph 3 mph 93% 0 in 0 W/m2
18:12 42.6 °F 40.8 °F 30.5 in WSW 2.9 mph 4 mph 93% 0 in 0 W/m2
18:17 42.6 °F 41 °F 30.5 in WNW 2 mph 4 mph 94% 0 in 0 W/m2
18:22 42.4 °F 40.6 °F 30.5 in NW 2 mph 5 mph 93% 0 in 0 W/m2
18:27 42.3 °F 40.6 °F 30.5 in West 6.9 mph 7 mph 94% 0 in 0 W/m2
18:32 42.3 °F 40.6 °F 30.5 in WNW 4 mph 7 mph 94% 0 in 0 W/m2
18:37 42.3 °F 40.6 °F 30.5 in WSW 2.9 mph 7 mph 94% 0 in 0 W/m2
18:42 42.3 °F 40.6 °F 30.5 in WNW 2.9 mph 6 mph 94% 0 in 0 W/m2
18:47 42.3 °F 40.6 °F 30.5 in West 2.9 mph 6 mph 94% 0 in 0 W/m2
18:52 42.4 °F 40.8 °F 30.5 in West 2.9 mph 5 mph 94% 0 in 0 W/m2
18:57 42.3 °F 40.6 °F 30.5 in West 2 mph 4 mph 94% 0 in 0 W/m2
19:02 42.3 °F 40.6 °F 30.5 in West 4 mph 9 mph 94% 0 in 0 W/m2
19:07 42.3 °F 40.6 °F 30.5 in WNW 4 mph 9 mph 94% 0 in 0 W/m2
19:12 42.3 °F 40.6 °F 30.5 in West 2.9 mph 7 mph 94% 0 in 0 W/m2
19:17 42.3 °F 40.6 °F 30.5 in West 4 mph 9 mph 94% 0 in 0 W/m2
19:22 42.3 °F 40.6 °F 30.5 in West 4 mph 8 mph 94% 0 in 0 W/m2
19:27 42.3 °F 40.6 °F 30.5 in West 2.9 mph 8 mph 94% 0 in 0 W/m2
19:32 42.4 °F 40.8 °F 30.5 in West 2.9 mph 8 mph 94% 0 in 0 W/m2
19:37 42.4 °F 40.8 °F 30.5 in West 2.9 mph 6 mph 94% 0 in 0 W/m2
19:42 42.4 °F 40.8 °F 30.5 in WSW 4.9 mph 7 mph 94% 0 in 0 W/m2
19:47 42.4 °F 40.8 °F 30.5 in WNW 2.9 mph 6 mph 94% 0 in 0 W/m2
19:52 42.6 °F 41 °F 30.5 in WNW 2.9 mph 5 mph 94% 0 in 0 W/m2
19:57 42.6 °F 41 °F 30.5 in West 2.9 mph 3 mph 94% 0 in 0 W/m2
20:02 42.8 °F 41.2 °F 30.5 in Calm   5 mph 94% 0 in 0 W/m2
20:07 42.8 °F 41.2 °F 30.5 in NNW 0.9 mph 1 mph 94% 0 in 0 W/m2
20:12 42.8 °F 41.2 °F 30.5 in Calm   1 mph 94% 0 in 0 W/m2
20:17 42.8 °F 41.2 °F 30.5 in Calm     94% 0 in 0 W/m2
20:22 42.8 °F 41.2 °F 30.5 in Calm   1 mph 94% 0 in 0 W/m2
20:27 42.8 °F 41.2 °F 30.5 in NE 0.9 mph 1 mph 94% 0 in 0 W/m2
20:32 42.8 °F 41.2 °F 30.5 in Calm     94% 0 in 0 W/m2
20:37 42.8 °F 41.2 °F 30.5 in Calm   1 mph 94% 0 in 0 W/m2
20:42 42.6 °F 41 °F 30.5 in ESE 2.9 mph 3 mph 94% 0 in 0 W/m2
20:47 42.6 °F 41 °F 30.5 in East 2 mph 3 mph 94% 0 in 0 W/m2
20:52 42.4 °F 40.8 °F 30.5 in Calm     94% 0 in 0 W/m2
20:57 42.4 °F 40.8 °F 30.5 in Calm     94% 0 in 0 W/m2
21:02 42.3 °F 40.6 °F 30.5 in Calm     94% 0 in 0 W/m2
21:07 42.3 °F 40.6 °F 30.5 in Calm     94% 0 in 0 W/m2
21:12 42.3 °F 40.6 °F 30.5 in North 0.9 mph 2 mph 94% 0 in 0 W/m2
21:17 42.4 °F 40.8 °F 30.5 in Calm   2 mph 94% 0 in 0 W/m2
21:22 42.6 °F 41.4 °F 30.5 in Calm     95% 0 in 0 W/m2
21:27 42.6 °F 41.4 °F 30.5 in Calm     95% 0 in 0 W/m2
21:32 42.8 °F 41.5 °F 30.5 in Calm     95% 0 in 0 W/m2
21:37 43 °F 41.7 °F 30.5 in Calm     95% 0 in 0 W/m2
21:42 43 °F 41.7 °F 30.5 in NW 0.9 mph 1 mph 95% 0 in 0 W/m2
21:47 43.2 °F 41.9 °F 30.5 in Calm   1 mph 95% 0 in 0 W/m2
21:52 43.3 °F 42.1 °F 30.5 in West 2 mph 3 mph 95% 0 in 0 W/m2
21:57 43.3 °F 41.7 °F 30.5 in West 2.9 mph 3 mph 94% 0 in 0 W/m2
22:02 43.5 °F 41.9 °F 30.5 in WNW 2 mph 4 mph 94% 0 in 0 W/m2
22:07 43.7 °F 42.1 °F 30.5 in WNW 0.9 mph 2 mph 94% 0 in 0 W/m2
22:13 43.9 °F 42.3 °F 30.5 in WNW 0.9 mph 4 mph 94% 0 in 0 W/m2
22:18 43.9 °F 42.3 °F 30.5 in Calm   1 mph 94% 0 in 0 W/m2
22:23 43.9 °F 42.3 °F 30.5 in WNW 0.9 mph 2 mph 94% 0 in 0 W/m2
22:28 44.1 °F 42.4 °F 30.5 in WNW 2 mph 2 mph 94% 0 in 0 W/m2
22:33 44.1 °F 42.1 °F 30.5 in West 0.9 mph 2 mph 93% 0 in 0 W/m2
22:38 44.1 °F 42.1 °F 30.5 in West 0.9 mph 3 mph 93% 0 in 0 W/m2
22:43 44.1 °F 42.1 °F 30.5 in West 0.9 mph 2 mph 93% 0 in 0 W/m2
22:48 44.1 °F 42.1 °F 30.5 in Calm     93% 0 in 0 W/m2
22:53 44.1 °F 42.1 °F 30.5 in Calm   2 mph 93% 0 in 0 W/m2
22:58 44.1 °F 42.1 °F 30.5 in Calm   1 mph 93% 0 in 0 W/m2
23:03 43.9 °F 41.9 °F 30.5 in West 2.9 mph 3 mph 93% 0 in 0 W/m2
23:08 43.9 °F 41.9 °F 30.5 in West 0.9 mph 1 mph 93% 0 in 0 W/m2
23:13 43.9 °F 41.9 °F 30.5 in SSW 4.9 mph 5 mph 93% 0 in 0 W/m2
23:18 43.9 °F 41.9 °F 30.5 in West 2 mph 6 mph 93% 0 in 0 W/m2
23:23 43.9 °F 41.9 °F 30.5 in WNW 2 mph 4 mph 93% 0 in 0 W/m2
23:28 43.7 °F 41.7 °F 30.5 in WNW 2 mph 6 mph 93% 0 in 0 W/m2
23:33 43.5 °F 41.7 °F 30.5 in NW 0.9 mph 4 mph 93% 0 in 0 W/m2
23:38 43.5 °F 41.9 °F 30.5 in WSW 2 mph 3 mph 94% 0 in 0 W/m2
23:43 43.5 °F 41.9 °F 30.5 in NW 0.9 mph 3 mph 94% 0 in 0 W/m2
23:48 43.5 °F 41.9 °F 30.5 in NNW 2 mph 2 mph 94% 0 in 0 W/m2
23:53 43.5 °F 41.9 °F 30.5 in WNW 2 mph 2 mph 94% 0 in 0 W/m2
23:58 43.3 °F 41.7 °F 30.5 in WNW 0.9 mph 4 mph 94% 0 in 0 W/m2
Juneau County Weather
Compliments of Weather Underground - 4 mb